sensor_id;sensor_type;location;lat;lon;timestamp;P1;durP1;ratioP1;P2;durP2;ratioP2
82372;SDS011;72000;42.828;23.382;2023-12-04T00:02:00;9.32;;;3.65;;
82372;SDS011;72000;42.828;23.382;2023-12-04T00:04:26;7.07;;;3.30;;
82372;SDS011;72000;42.828;23.382;2023-12-04T00:06:51;9.23;;;3.65;;
82372;SDS011;72000;42.828;23.382;2023-12-04T00:09:17;9.48;;;3.88;;
82372;SDS011;72000;42.828;23.382;2023-12-04T00:11:42;8.63;;;3.83;;
82372;SDS011;72000;42.828;23.382;2023-12-04T00:14:08;9.68;;;4.30;;
82372;SDS011;72000;42.828;23.382;2023-12-04T00:16:34;9.00;;;4.03;;
82372;SDS011;72000;42.828;23.382;2023-12-04T00:19:02;9.73;;;4.03;;
82372;SDS011;72000;42.828;23.382;2023-12-04T00:21:28;10.18;;;3.92;;
82372;SDS011;72000;42.828;23.382;2023-12-04T00:23:54;10.90;;;3.85;;
82372;SDS011;72000;42.828;23.382;2023-12-04T00:26:19;9.15;;;3.92;;
82372;SDS011;72000;42.828;23.382;2023-12-04T00:28:45;10.18;;;4.05;;
82372;SDS011;72000;42.828;23.382;2023-12-04T00:31:10;8.68;;;3.45;;
82372;SDS011;72000;42.828;23.382;2023-12-04T00:33:36;10.70;;;3.97;;
82372;SDS011;72000;42.828;23.382;2023-12-04T00:36:02;10.60;;;4.03;;
82372;SDS011;72000;42.828;23.382;2023-12-04T00:38:27;9.88;;;3.97;;
82372;SDS011;72000;42.828;23.382;2023-12-04T00:40:53;10.65;;;4.15;;
82372;SDS011;72000;42.828;23.382;2023-12-04T00:43:19;9.95;;;4.28;;
82372;SDS011;72000;42.828;23.382;2023-12-04T00:45:44;8.63;;;3.92;;
82372;SDS011;72000;42.828;23.382;2023-12-04T00:48:10;10.23;;;4.40;;
82372;SDS011;72000;42.828;23.382;2023-12-04T00:50:35;8.93;;;3.85;;
82372;SDS011;72000;42.828;23.382;2023-12-04T00:53:01;10.13;;;4.07;;
82372;SDS011;72000;42.828;23.382;2023-12-04T00:55:27;10.00;;;4.00;;
82372;SDS011;72000;42.828;23.382;2023-12-04T00:57:52;11.05;;;4.10;;
82372;SDS011;72000;42.828;23.382;2023-12-04T01:00:18;8.68;;;3.83;;
82372;SDS011;72000;42.828;23.382;2023-12-04T01:02:43;9.65;;;3.88;;
82372;SDS011;72000;42.828;23.382;2023-12-04T01:05:09;9.55;;;4.15;;
82372;SDS011;72000;42.828;23.382;2023-12-04T01:07:35;10.70;;;4.43;;
82372;SDS011;72000;42.828;23.382;2023-12-04T01:10:00;9.38;;;3.90;;
82372;SDS011;72000;42.828;23.382;2023-12-04T01:12:26;11.15;;;4.45;;
82372;SDS011;72000;42.828;23.382;2023-12-04T01:14:51;10.10;;;4.13;;
82372;SDS011;72000;42.828;23.382;2023-12-04T01:17:17;8.65;;;3.58;;
82372;SDS011;72000;42.828;23.382;2023-12-04T01:19:43;9.85;;;3.90;;
82372;SDS011;72000;42.828;23.382;2023-12-04T01:22:09;9.85;;;4.28;;
82372;SDS011;72000;42.828;23.382;2023-12-04T01:24:34;11.13;;;4.15;;
82372;SDS011;72000;42.828;23.382;2023-12-04T01:27:00;10.68;;;5.00;;
82372;SDS011;72000;42.828;23.382;2023-12-04T01:29:25;9.25;;;4.20;;
82372;SDS011;72000;42.828;23.382;2023-12-04T01:31:51;12.15;;;4.50;;
82372;SDS011;72000;42.828;23.382;2023-12-04T01:34:17;10.52;;;4.53;;
82372;SDS011;72000;42.828;23.382;2023-12-04T01:36:42;9.50;;;3.92;;
82372;SDS011;72000;42.828;23.382;2023-12-04T01:39:08;10.75;;;4.28;;
82372;SDS011;72000;42.828;23.382;2023-12-04T01:41:33;9.98;;;4.30;;
82372;SDS011;72000;42.828;23.382;2023-12-04T01:43:59;11.60;;;4.47;;
82372;SDS011;72000;42.828;23.382;2023-12-04T01:46:25;10.80;;;4.40;;
82372;SDS011;72000;42.828;23.382;2023-12-04T01:48:50;10.25;;;4.30;;
82372;SDS011;72000;42.828;23.382;2023-12-04T01:51:16;11.50;;;4.72;;
82372;SDS011;72000;42.828;23.382;2023-12-04T01:53:42;11.45;;;4.32;;
82372;SDS011;72000;42.828;23.382;2023-12-04T01:56:08;10.43;;;4.35;;
82372;SDS011;72000;42.828;23.382;2023-12-04T01:58:34;11.95;;;4.10;;
82372;SDS011;72000;42.828;23.382;2023-12-04T02:00:59;8.65;;;3.80;;
82372;SDS011;72000;42.828;23.382;2023-12-04T02:03:25;9.68;;;4.32;;
82372;SDS011;72000;42.828;23.382;2023-12-04T02:05:51;11.25;;;4.38;;
82372;SDS011;72000;42.828;23.382;2023-12-04T02:08:18;8.77;;;4.00;;
82372;SDS011;72000;42.828;23.382;2023-12-04T02:10:43;11.38;;;3.90;;
82372;SDS011;72000;42.828;23.382;2023-12-04T02:13:09;8.98;;;3.85;;
82372;SDS011;72000;42.828;23.382;2023-12-04T02:15:35;11.05;;;3.97;;
82372;SDS011;72000;42.828;23.382;2023-12-04T02:18:02;9.35;;;3.95;;
82372;SDS011;72000;42.828;23.382;2023-12-04T02:20:32;9.90;;;3.97;;
82372;SDS011;72000;42.828;23.382;2023-12-04T02:23:04;8.93;;;3.80;;
82372;SDS011;72000;42.828;23.382;2023-12-04T02:25:29;10.43;;;3.90;;
82372;SDS011;72000;42.828;23.382;2023-12-04T02:27:56;12.60;;;4.20;;
82372;SDS011;72000;42.828;23.382;2023-12-04T02:30:26;9.70;;;4.05;;
82372;SDS011;72000;42.828;23.382;2023-12-04T02:32:54;9.32;;;3.88;;
82372;SDS011;72000;42.828;23.382;2023-12-04T02:35:20;10.32;;;4.15;;
82372;SDS011;72000;42.828;23.382;2023-12-04T02:37:50;8.98;;;3.65;;
82372;SDS011;72000;42.828;23.382;2023-12-04T02:40:16;9.32;;;3.83;;
82372;SDS011;72000;42.828;23.382;2023-12-04T02:42:42;9.93;;;3.80;;
82372;SDS011;72000;42.828;23.382;2023-12-04T02:45:07;10.35;;;4.03;;
82372;SDS011;72000;42.828;23.382;2023-12-04T02:47:33;10.88;;;4.28;;
82372;SDS011;72000;42.828;23.382;2023-12-04T02:49:59;11.52;;;4.28;;
82372;SDS011;72000;42.828;23.382;2023-12-04T02:52:24;11.88;;;4.50;;
82372;SDS011;72000;42.828;23.382;2023-12-04T02:54:50;11.30;;;4.40;;
82372;SDS011;72000;42.828;23.382;2023-12-04T02:57:15;10.63;;;4.15;;
82372;SDS011;72000;42.828;23.382;2023-12-04T02:59:41;8.95;;;3.88;;
82372;SDS011;72000;42.828;23.382;2023-12-04T03:02:07;9.52;;;3.80;;
82372;SDS011;72000;42.828;23.382;2023-12-04T03:04:33;9.27;;;3.70;;
82372;SDS011;72000;42.828;23.382;2023-12-04T03:06:59;10.13;;;4.00;;
82372;SDS011;72000;42.828;23.382;2023-12-04T03:09:25;8.35;;;3.78;;
82372;SDS011;72000;42.828;23.382;2023-12-04T03:11:50;9.65;;;3.80;;
82372;SDS011;72000;42.828;23.382;2023-12-04T03:14:16;8.85;;;3.92;;
82372;SDS011;72000;42.828;23.382;2023-12-04T03:16:41;10.77;;;3.90;;
82372;SDS011;72000;42.828;23.382;2023-12-04T03:19:07;9.95;;;3.70;;
82372;SDS011;72000;42.828;23.382;2023-12-04T03:21:32;9.02;;;3.50;;
82372;SDS011;72000;42.828;23.382;2023-12-04T03:23:58;9.23;;;3.60;;
82372;SDS011;72000;42.828;23.382;2023-12-04T03:26:24;8.93;;;3.53;;
82372;SDS011;72000;42.828;23.382;2023-12-04T03:28:50;9.45;;;3.28;;
82372;SDS011;72000;42.828;23.382;2023-12-04T03:31:16;9.32;;;3.83;;
82372;SDS011;72000;42.828;23.382;2023-12-04T03:33:41;8.45;;;3.28;;
82372;SDS011;72000;42.828;23.382;2023-12-04T03:36:07;9.70;;;3.65;;
82372;SDS011;72000;42.828;23.382;2023-12-04T03:38:33;9.50;;;3.85;;
82372;SDS011;72000;42.828;23.382;2023-12-04T03:40:58;9.02;;;3.83;;
82372;SDS011;72000;42.828;23.382;2023-12-04T03:43:24;8.75;;;3.88;;
82372;SDS011;72000;42.828;23.382;2023-12-04T03:45:49;8.55;;;3.15;;
82372;SDS011;72000;42.828;23.382;2023-12-04T03:48:15;9.60;;;3.65;;
82372;SDS011;72000;42.828;23.382;2023-12-04T03:50:40;7.95;;;3.58;;
82372;SDS011;72000;42.828;23.382;2023-12-04T03:53:06;9.30;;;3.53;;
82372;SDS011;72000;42.828;23.382;2023-12-04T03:55:31;11.55;;;4.10;;
82372;SDS011;72000;42.828;23.382;2023-12-04T03:57:58;10.23;;;4.40;;
82372;SDS011;72000;42.828;23.382;2023-12-04T04:00:24;10.23;;;3.72;;
82372;SDS011;72000;42.828;23.382;2023-12-04T04:02:50;11.00;;;3.97;;
82372;SDS011;72000;42.828;23.382;2023-12-04T04:05:15;9.32;;;3.53;;
82372;SDS011;72000;42.828;23.382;2023-12-04T04:07:41;8.77;;;3.60;;
82372;SDS011;72000;42.828;23.382;2023-12-04T04:10:07;9.15;;;3.58;;
82372;SDS011;72000;42.828;23.382;2023-12-04T04:12:33;9.05;;;3.60;;
82372;SDS011;72000;42.828;23.382;2023-12-04T04:14:59;8.88;;;3.50;;
82372;SDS011;72000;42.828;23.382;2023-12-04T04:17:25;8.13;;;3.45;;
82372;SDS011;72000;42.828;23.382;2023-12-04T04:19:54;10.13;;;3.78;;
82372;SDS011;72000;42.828;23.382;2023-12-04T04:22:20;9.15;;;3.53;;
82372;SDS011;72000;42.828;23.382;2023-12-04T04:24:46;10.73;;;3.53;;
82372;SDS011;72000;42.828;23.382;2023-12-04T04:27:12;10.82;;;3.97;;
82372;SDS011;72000;42.828;23.382;2023-12-04T04:29:38;8.15;;;3.45;;
82372;SDS011;72000;42.828;23.382;2023-12-04T04:32:04;10.25;;;3.80;;
82372;SDS011;72000;42.828;23.382;2023-12-04T04:34:30;7.90;;;3.38;;
82372;SDS011;72000;42.828;23.382;2023-12-04T04:36:56;7.55;;;3.22;;
82372;SDS011;72000;42.828;23.382;2023-12-04T04:39:21;9.60;;;3.75;;
82372;SDS011;72000;42.828;23.382;2023-12-04T04:41:47;9.38;;;3.55;;
82372;SDS011;72000;42.828;23.382;2023-12-04T04:44:12;8.02;;;3.80;;
82372;SDS011;72000;42.828;23.382;2023-12-04T04:46:38;8.93;;;3.75;;
82372;SDS011;72000;42.828;23.382;2023-12-04T04:49:04;7.65;;;3.05;;
82372;SDS011;72000;42.828;23.382;2023-12-04T04:51:33;7.35;;;3.25;;
82372;SDS011;72000;42.828;23.382;2023-12-04T04:56:25;10.75;;;3.53;;
82372;SDS011;72000;42.828;23.382;2023-12-04T04:58:51;8.55;;;3.20;;
82372;SDS011;72000;42.828;23.382;2023-12-04T05:01:16;9.75;;;3.33;;
82372;SDS011;72000;42.828;23.382;2023-12-04T05:03:42;9.02;;;3.63;;
82372;SDS011;72000;42.828;23.382;2023-12-04T05:06:08;7.75;;;3.53;;
82372;SDS011;72000;42.828;23.382;2023-12-04T05:08:33;9.65;;;3.63;;
82372;SDS011;72000;42.828;23.382;2023-12-04T05:10:59;8.55;;;3.00;;
82372;SDS011;72000;42.828;23.382;2023-12-04T05:13:24;8.10;;;3.03;;
82372;SDS011;72000;42.828;23.382;2023-12-04T05:15:50;8.98;;;3.47;;
82372;SDS011;72000;42.828;23.382;2023-12-04T05:18:16;7.82;;;3.10;;
82372;SDS011;72000;42.828;23.382;2023-12-04T05:20:41;12.35;;;3.50;;
82372;SDS011;72000;42.828;23.382;2023-12-04T05:23:07;6.32;;;3.03;;
82372;SDS011;72000;42.828;23.382;2023-12-04T05:25:32;9.15;;;3.30;;
82372;SDS011;72000;42.828;23.382;2023-12-04T05:27:58;7.78;;;3.50;;
82372;SDS011;72000;42.828;23.382;2023-12-04T05:30:23;8.75;;;3.63;;
82372;SDS011;72000;42.828;23.382;2023-12-04T05:32:49;9.82;;;3.58;;
82372;SDS011;72000;42.828;23.382;2023-12-04T05:35:15;7.95;;;3.10;;
82372;SDS011;72000;42.828;23.382;2023-12-04T05:37:41;9.23;;;3.47;;
82372;SDS011;72000;42.828;23.382;2023-12-04T05:40:07;8.00;;;3.25;;
82372;SDS011;72000;42.828;23.382;2023-12-04T05:44:59;7.38;;;2.85;;
82372;SDS011;72000;42.828;23.382;2023-12-04T05:47:25;7.80;;;3.40;;
82372;SDS011;72000;42.828;23.382;2023-12-04T05:49:51;9.23;;;3.50;;
82372;SDS011;72000;42.828;23.382;2023-12-04T05:52:17;9.40;;;3.80;;
82372;SDS011;72000;42.828;23.382;2023-12-04T05:54:42;8.90;;;3.33;;
82372;SDS011;72000;42.828;23.382;2023-12-04T05:57:08;10.02;;;3.45;;
82372;SDS011;72000;42.828;23.382;2023-12-04T05:59:34;7.30;;;3.05;;
82372;SDS011;72000;42.828;23.382;2023-12-04T06:01:59;9.40;;;3.35;;
82372;SDS011;72000;42.828;23.382;2023-12-04T06:04:26;7.32;;;3.20;;
82372;SDS011;72000;42.828;23.382;2023-12-04T06:06:51;8.45;;;3.00;;
82372;SDS011;72000;42.828;23.382;2023-12-04T06:09:17;7.75;;;3.17;;
82372;SDS011;72000;42.828;23.382;2023-12-04T06:11:42;9.10;;;3.75;;
82372;SDS011;72000;42.828;23.382;2023-12-04T06:14:08;8.77;;;3.72;;
82372;SDS011;72000;42.828;23.382;2023-12-04T06:16:34;8.65;;;3.55;;
82372;SDS011;72000;42.828;23.382;2023-12-04T06:18:59;9.43;;;3.47;;
82372;SDS011;72000;42.828;23.382;2023-12-04T06:21:25;8.23;;;3.10;;
82372;SDS011;72000;42.828;23.382;2023-12-04T06:23:50;9.45;;;3.65;;
82372;SDS011;72000;42.828;23.382;2023-12-04T06:26:16;8.98;;;3.55;;
82372;SDS011;72000;42.828;23.382;2023-12-04T06:28:43;10.57;;;4.32;;
82372;SDS011;72000;42.828;23.382;2023-12-04T06:31:09;10.57;;;4.25;;
82372;SDS011;72000;42.828;23.382;2023-12-04T06:33:35;8.80;;;3.70;;
82372;SDS011;72000;42.828;23.382;2023-12-04T06:36:01;9.55;;;3.58;;
82372;SDS011;72000;42.828;23.382;2023-12-04T06:38:27;12.43;;;4.05;;
82372;SDS011;72000;42.828;23.382;2023-12-04T06:40:57;8.35;;;3.30;;
82372;SDS011;72000;42.828;23.382;2023-12-04T06:43:23;6.82;;;3.25;;
82372;SDS011;72000;42.828;23.382;2023-12-04T06:45:49;7.55;;;3.08;;
82372;SDS011;72000;42.828;23.382;2023-12-04T06:48:14;7.43;;;3.10;;
82372;SDS011;72000;42.828;23.382;2023-12-04T06:50:40;7.07;;;3.10;;
82372;SDS011;72000;42.828;23.382;2023-12-04T06:53:06;10.38;;;3.35;;
82372;SDS011;72000;42.828;23.382;2023-12-04T06:55:32;7.72;;;3.05;;
82372;SDS011;72000;42.828;23.382;2023-12-04T06:57:57;8.18;;;3.13;;
82372;SDS011;72000;42.828;23.382;2023-12-04T07:00:23;9.10;;;2.72;;
82372;SDS011;72000;42.828;23.382;2023-12-04T07:02:49;7.05;;;2.90;;
82372;SDS011;72000;42.828;23.382;2023-12-04T07:05:16;8.63;;;3.20;;
82372;SDS011;72000;42.828;23.382;2023-12-04T07:07:42;12.20;;;4.15;;
82372;SDS011;72000;42.828;23.382;2023-12-04T07:10:07;10.82;;;3.67;;
82372;SDS011;72000;42.828;23.382;2023-12-04T07:12:33;10.45;;;3.78;;
82372;SDS011;72000;42.828;23.382;2023-12-04T07:14:58;10.02;;;3.80;;
82372;SDS011;72000;42.828;23.382;2023-12-04T07:17:24;9.57;;;3.40;;
82372;SDS011;72000;42.828;23.382;2023-12-04T07:19:50;9.20;;;3.67;;
82372;SDS011;72000;42.828;23.382;2023-12-04T07:22:15;8.75;;;3.78;;
82372;SDS011;72000;42.828;23.382;2023-12-04T07:24:41;10.25;;;3.97;;
82372;SDS011;72000;42.828;23.382;2023-12-04T07:27:06;11.93;;;3.60;;
82372;SDS011;72000;42.828;23.382;2023-12-04T07:29:32;10.18;;;3.75;;
82372;SDS011;72000;42.828;23.382;2023-12-04T07:31:57;9.27;;;3.88;;
82372;SDS011;72000;42.828;23.382;2023-12-04T07:34:24;9.57;;;3.47;;
82372;SDS011;72000;42.828;23.382;2023-12-04T07:36:49;9.25;;;3.20;;
82372;SDS011;72000;42.828;23.382;2023-12-04T07:39:15;9.73;;;3.45;;
82372;SDS011;72000;42.828;23.382;2023-12-04T07:41:41;10.73;;;3.42;;
82372;SDS011;72000;42.828;23.382;2023-12-04T07:44:07;11.07;;;3.50;;
82372;SDS011;72000;42.828;23.382;2023-12-04T07:46:33;8.25;;;3.05;;
82372;SDS011;72000;42.828;23.382;2023-12-04T07:48:59;8.93;;;3.35;;
82372;SDS011;72000;42.828;23.382;2023-12-04T07:51:24;7.32;;;3.03;;
82372;SDS011;72000;42.828;23.382;2023-12-04T07:53:50;10.07;;;3.45;;
82372;SDS011;72000;42.828;23.382;2023-12-04T07:56:15;7.70;;;3.03;;
82372;SDS011;72000;42.828;23.382;2023-12-04T07:58:41;8.48;;;3.13;;
82372;SDS011;72000;42.828;23.382;2023-12-04T08:01:06;7.30;;;2.97;;
82372;SDS011;72000;42.828;23.382;2023-12-04T08:03:32;8.85;;;3.30;;
82372;SDS011;72000;42.828;23.382;2023-12-04T08:05:58;9.55;;;3.47;;
82372;SDS011;72000;42.828;23.382;2023-12-04T08:08:23;8.07;;;3.22;;
82372;SDS011;72000;42.828;23.382;2023-12-04T08:10:50;7.63;;;3.15;;
82372;SDS011;72000;42.828;23.382;2023-12-04T08:13:15;11.65;;;3.35;;
82372;SDS011;72000;42.828;23.382;2023-12-04T08:15:41;7.53;;;3.10;;
82372;SDS011;72000;42.828;23.382;2023-12-04T08:18:07;7.35;;;3.10;;
82372;SDS011;72000;42.828;23.382;2023-12-04T08:20:33;8.63;;;3.20;;
82372;SDS011;72000;42.828;23.382;2023-12-04T08:22:58;8.57;;;3.20;;
82372;SDS011;72000;42.828;23.382;2023-12-04T08:25:24;9.75;;;3.28;;
82372;SDS011;72000;42.828;23.382;2023-12-04T08:27:49;9.68;;;3.40;;
82372;SDS011;72000;42.828;23.382;2023-12-04T08:30:16;9.13;;;3.55;;
82372;SDS011;72000;42.828;23.382;2023-12-04T08:32:41;9.38;;;3.58;;
82372;SDS011;72000;42.828;23.382;2023-12-04T08:35:07;7.82;;;3.60;;
82372;SDS011;72000;42.828;23.382;2023-12-04T08:37:33;8.25;;;3.70;;
82372;SDS011;72000;42.828;23.382;2023-12-04T08:39:58;10.60;;;4.00;;
82372;SDS011;72000;42.828;23.382;2023-12-04T08:42:24;10.48;;;4.07;;
82372;SDS011;72000;42.828;23.382;2023-12-04T08:44:49;10.57;;;3.78;;
82372;SDS011;72000;42.828;23.382;2023-12-04T08:47:15;8.93;;;3.35;;
82372;SDS011;72000;42.828;23.382;2023-12-04T08:49:40;10.68;;;4.00;;
82372;SDS011;72000;42.828;23.382;2023-12-04T08:52:06;9.55;;;3.58;;
82372;SDS011;72000;42.828;23.382;2023-12-04T08:54:32;8.15;;;3.45;;
82372;SDS011;72000;42.828;23.382;2023-12-04T08:56:58;8.20;;;3.55;;
82372;SDS011;72000;42.828;23.382;2023-12-04T08:59:24;11.07;;;4.13;;
82372;SDS011;72000;42.828;23.382;2023-12-04T09:01:49;10.45;;;4.00;;
82372;SDS011;72000;42.828;23.382;2023-12-04T09:04:15;11.65;;;4.05;;
82372;SDS011;72000;42.828;23.382;2023-12-04T09:06:40;10.25;;;4.07;;
82372;SDS011;72000;42.828;23.382;2023-12-04T09:09:06;13.23;;;3.95;;
82372;SDS011;72000;42.828;23.382;2023-12-04T09:11:31;8.30;;;3.50;;
82372;SDS011;72000;42.828;23.382;2023-12-04T09:13:57;7.95;;;3.15;;
82372;SDS011;72000;42.828;23.382;2023-12-04T09:16:23;9.73;;;3.60;;
82372;SDS011;72000;42.828;23.382;2023-12-04T09:18:48;10.55;;;3.83;;
82372;SDS011;72000;42.828;23.382;2023-12-04T09:21:14;10.13;;;3.38;;
82372;SDS011;72000;42.828;23.382;2023-12-04T09:23:39;9.20;;;3.45;;
82372;SDS011;72000;42.828;23.382;2023-12-04T09:26:05;7.72;;;3.42;;
82372;SDS011;72000;42.828;23.382;2023-12-04T09:28:31;16.20;;;3.53;;
82372;SDS011;72000;42.828;23.382;2023-12-04T09:30:56;8.68;;;3.72;;
82372;SDS011;72000;42.828;23.382;2023-12-04T09:33:22;7.40;;;3.38;;
82372;SDS011;72000;42.828;23.382;2023-12-04T09:35:47;8.55;;;3.42;;
82372;SDS011;72000;42.828;23.382;2023-12-04T09:38:13;9.32;;;3.55;;
82372;SDS011;72000;42.828;23.382;2023-12-04T09:40:38;9.13;;;3.60;;
82372;SDS011;72000;42.828;23.382;2023-12-04T09:43:05;7.60;;;3.15;;
82372;SDS011;72000;42.828;23.382;2023-12-04T09:45:31;9.23;;;3.63;;
82372;SDS011;72000;42.828;23.382;2023-12-04T09:47:57;8.57;;;3.17;;
82372;SDS011;72000;42.828;23.382;2023-12-04T09:50:24;11.07;;;4.22;;
82372;SDS011;72000;42.828;23.382;2023-12-04T09:52:49;8.85;;;3.50;;
82372;SDS011;72000;42.828;23.382;2023-12-04T09:55:16;10.32;;;3.78;;
82372;SDS011;72000;42.828;23.382;2023-12-04T09:57:42;8.90;;;3.53;;
82372;SDS011;72000;42.828;23.382;2023-12-04T10:00:09;9.98;;;3.70;;
82372;SDS011;72000;42.828;23.382;2023-12-04T10:02:35;10.57;;;3.80;;
82372;SDS011;72000;42.828;23.382;2023-12-04T10:05:02;9.07;;;3.38;;
82372;SDS011;72000;42.828;23.382;2023-12-04T10:07:30;9.63;;;4.07;;
82372;SDS011;72000;42.828;23.382;2023-12-04T10:09:55;10.68;;;3.92;;
82372;SDS011;72000;42.828;23.382;2023-12-04T10:12:21;8.75;;;3.65;;
82372;SDS011;72000;42.828;23.382;2023-12-04T10:15:02;10.35;;;3.85;;
82372;SDS011;72000;42.828;23.382;2023-12-04T10:17:32;10.52;;;4.03;;
82372;SDS011;72000;42.828;23.382;2023-12-04T10:20:09;10.25;;;4.30;;
82372;SDS011;72000;42.828;23.382;2023-12-04T10:25:18;11.95;;;4.45;;
82372;SDS011;72000;42.828;23.382;2023-12-04T10:27:44;13.73;;;5.13;;
82372;SDS011;72000;42.828;23.382;2023-12-04T10:30:21;9.52;;;4.20;;
82372;SDS011;72000;42.828;23.382;2023-12-04T10:32:56;12.43;;;4.30;;
82372;SDS011;72000;42.828;23.382;2023-12-04T10:35:28;10.60;;;4.28;;
82372;SDS011;72000;42.828;23.382;2023-12-04T10:37:56;12.70;;;4.63;;
82372;SDS011;72000;42.828;23.382;2023-12-04T10:40:25;12.27;;;4.70;;
82372;SDS011;72000;42.828;23.382;2023-12-04T10:43:09;10.15;;;4.40;;
82372;SDS011;72000;42.828;23.382;2023-12-04T10:45:36;12.75;;;4.72;;
82372;SDS011;72000;42.828;23.382;2023-12-04T10:48:02;12.90;;;4.72;;
82372;SDS011;72000;42.828;23.382;2023-12-04T10:50:36;12.35;;;4.93;;
82372;SDS011;72000;42.828;23.382;2023-12-04T10:53:03;12.55;;;4.93;;
82372;SDS011;72000;42.828;23.382;2023-12-04T10:55:32;11.70;;;5.00;;
82372;SDS011;72000;42.828;23.382;2023-12-04T10:58:02;11.15;;;4.75;;
82372;SDS011;72000;42.828;23.382;2023-12-04T11:00:32;17.95;;;5.55;;
82372;SDS011;72000;42.828;23.382;2023-12-04T11:03:03;13.45;;;5.22;;
82372;SDS011;72000;42.828;23.382;2023-12-04T11:05:30;13.60;;;5.35;;
82372;SDS011;72000;42.828;23.382;2023-12-04T11:07:57;14.32;;;5.50;;
82372;SDS011;72000;42.828;23.382;2023-12-04T11:10:27;12.68;;;5.18;;
82372;SDS011;72000;42.828;23.382;2023-12-04T11:13:00;13.38;;;5.85;;
82372;SDS011;72000;42.828;23.382;2023-12-04T11:15:29;13.27;;;5.43;;
82372;SDS011;72000;42.828;23.382;2023-12-04T11:17:59;16.58;;;5.95;;
82372;SDS011;72000;42.828;23.382;2023-12-04T11:20:29;14.60;;;5.40;;
82372;SDS011;72000;42.828;23.382;2023-12-04T11:22:56;12.75;;;5.28;;
82372;SDS011;72000;42.828;23.382;2023-12-04T11:25:23;12.43;;;4.78;;
82372;SDS011;72000;42.828;23.382;2023-12-04T11:27:50;12.27;;;5.05;;
82372;SDS011;72000;42.828;23.382;2023-12-04T11:30:17;11.23;;;5.00;;
82372;SDS011;72000;42.828;23.382;2023-12-04T11:32:46;15.18;;;5.57;;
82372;SDS011;72000;42.828;23.382;2023-12-04T11:35:17;11.45;;;4.97;;
82372;SDS011;72000;42.828;23.382;2023-12-04T11:37:43;10.35;;;4.32;;
82372;SDS011;72000;42.828;23.382;2023-12-04T11:40:14;9.57;;;4.68;;
82372;SDS011;72000;42.828;23.382;2023-12-04T11:42:41;14.93;;;6.10;;
82372;SDS011;72000;42.828;23.382;2023-12-04T11:45:10;15.70;;;5.70;;
82372;SDS011;72000;42.828;23.382;2023-12-04T11:47:49;15.20;;;5.57;;
82372;SDS011;72000;42.828;23.382;2023-12-04T11:50:23;10.15;;;4.40;;
82372;SDS011;72000;42.828;23.382;2023-12-04T11:52:50;12.68;;;5.53;;
82372;SDS011;72000;42.828;23.382;2023-12-04T11:55:16;12.25;;;5.28;;
82372;SDS011;72000;42.828;23.382;2023-12-04T11:57:43;8.90;;;3.90;;
82372;SDS011;72000;42.828;23.382;2023-12-04T12:02:40;8.05;;;3.20;;
82372;SDS011;72000;42.828;23.382;2023-12-04T12:05:06;7.53;;;2.70;;
82372;SDS011;72000;42.828;23.382;2023-12-04T12:07:33;9.27;;;3.83;;
82372;SDS011;72000;42.828;23.382;2023-12-04T12:09:59;6.95;;;3.03;;
82372;SDS011;72000;42.828;23.382;2023-12-04T12:12:28;7.88;;;3.10;;
82372;SDS011;72000;42.828;23.382;2023-12-04T12:14:53;5.35;;;2.17;;
82372;SDS011;72000;42.828;23.382;2023-12-04T12:17:19;5.78;;;2.70;;
82372;SDS011;72000;42.828;23.382;2023-12-04T12:19:45;7.97;;;2.90;;
82372;SDS011;72000;42.828;23.382;2023-12-04T12:22:11;7.22;;;3.20;;
82372;SDS011;72000;42.828;23.382;2023-12-04T12:27:02;6.65;;;2.80;;
82372;SDS011;72000;42.828;23.382;2023-12-04T12:29:28;6.93;;;3.22;;
82372;SDS011;72000;42.828;23.382;2023-12-04T12:31:53;6.70;;;2.90;;
82372;SDS011;72000;42.828;23.382;2023-12-04T12:34:19;7.95;;;3.40;;
82372;SDS011;72000;42.828;23.382;2023-12-04T12:36:44;8.27;;;3.25;;
82372;SDS011;72000;42.828;23.382;2023-12-04T12:39:10;8.40;;;3.72;;
82372;SDS011;72000;42.828;23.382;2023-12-04T12:41:37;7.43;;;3.35;;
82372;SDS011;72000;42.828;23.382;2023-12-04T12:44:03;7.43;;;3.30;;
82372;SDS011;72000;42.828;23.382;2023-12-04T12:46:29;7.93;;;3.40;;
82372;SDS011;72000;42.828;23.382;2023-12-04T12:48:54;8.43;;;3.70;;
82372;SDS011;72000;42.828;23.382;2023-12-04T12:51:20;8.10;;;3.50;;
82372;SDS011;72000;42.828;23.382;2023-12-04T12:53:45;8.88;;;3.50;;
82372;SDS011;72000;42.828;23.382;2023-12-04T12:56:11;7.55;;;3.47;;
82372;SDS011;72000;42.828;23.382;2023-12-04T12:58:36;7.78;;;3.35;;
82372;SDS011;72000;42.828;23.382;2023-12-04T13:01:02;7.45;;;3.40;;
82372;SDS011;72000;42.828;23.382;2023-12-04T13:03:28;7.45;;;3.20;;
82372;SDS011;72000;42.828;23.382;2023-12-04T13:05:57;7.72;;;3.20;;
82372;SDS011;72000;42.828;23.382;2023-12-04T13:08:22;6.60;;;3.00;;
82372;SDS011;72000;42.828;23.382;2023-12-04T13:10:48;7.30;;;3.00;;
82372;SDS011;72000;42.828;23.382;2023-12-04T13:13:13;7.53;;;3.00;;
82372;SDS011;72000;42.828;23.382;2023-12-04T13:15:42;7.38;;;3.08;;
82372;SDS011;72000;42.828;23.382;2023-12-04T13:18:08;7.07;;;2.97;;
82372;SDS011;72000;42.828;23.382;2023-12-04T13:20:34;7.75;;;3.35;;
82372;SDS011;72000;42.828;23.382;2023-12-04T13:23:00;6.53;;;3.28;;
82372;SDS011;72000;42.828;23.382;2023-12-04T13:25:26;8.57;;;3.50;;
82372;SDS011;72000;42.828;23.382;2023-12-04T13:27:52;6.97;;;3.33;;
82372;SDS011;72000;42.828;23.382;2023-12-04T13:30:18;8.50;;;3.47;;
82372;SDS011;72000;42.828;23.382;2023-12-04T13:32:45;7.22;;;3.35;;
82372;SDS011;72000;42.828;23.382;2023-12-04T13:35:10;7.95;;;3.63;;
82372;SDS011;72000;42.828;23.382;2023-12-04T13:37:36;6.32;;;3.28;;
82372;SDS011;72000;42.828;23.382;2023-12-04T13:40:04;7.22;;;3.22;;
82372;SDS011;72000;42.828;23.382;2023-12-04T13:42:37;8.27;;;3.50;;
82372;SDS011;72000;42.828;23.382;2023-12-04T13:45:21;7.03;;;3.30;;
82372;SDS011;72000;42.828;23.382;2023-12-04T13:47:48;8.77;;;3.80;;
82372;SDS011;72000;42.828;23.382;2023-12-04T13:50:14;10.80;;;4.35;;
82372;SDS011;72000;42.828;23.382;2023-12-04T13:52:39;11.30;;;4.20;;
82372;SDS011;72000;42.828;23.382;2023-12-04T13:55:08;10.40;;;3.90;;
82372;SDS011;72000;42.828;23.382;2023-12-04T13:57:45;9.80;;;3.90;;
82372;SDS011;72000;42.828;23.382;2023-12-04T14:00:40;9.27;;;3.78;;
82372;SDS011;72000;42.828;23.382;2023-12-04T14:03:06;8.93;;;4.00;;
82372;SDS011;72000;42.828;23.382;2023-12-04T14:05:33;10.27;;;3.85;;
82372;SDS011;72000;42.828;23.382;2023-12-04T14:08:02;9.35;;;3.58;;
82372;SDS011;72000;42.828;23.382;2023-12-04T14:10:29;8.95;;;3.70;;
82372;SDS011;72000;42.828;23.382;2023-12-04T14:12:55;9.18;;;3.75;;
82372;SDS011;72000;42.828;23.382;2023-12-04T14:15:20;9.93;;;3.70;;
82372;SDS011;72000;42.828;23.382;2023-12-04T14:17:46;9.82;;;3.90;;
82372;SDS011;72000;42.828;23.382;2023-12-04T14:20:12;10.85;;;3.72;;
82372;SDS011;72000;42.828;23.382;2023-12-04T14:22:44;12.77;;;4.18;;
82372;SDS011;72000;42.828;23.382;2023-12-04T14:25:11;9.98;;;4.10;;
82372;SDS011;72000;42.828;23.382;2023-12-04T14:27:36;8.55;;;4.00;;
82372;SDS011;72000;42.828;23.382;2023-12-04T14:30:08;9.82;;;4.00;;
82372;SDS011;72000;42.828;23.382;2023-12-04T14:32:35;9.55;;;4.35;;
82372;SDS011;72000;42.828;23.382;2023-12-04T14:35:01;10.43;;;3.80;;
82372;SDS011;72000;42.828;23.382;2023-12-04T14:37:28;11.45;;;4.10;;
82372;SDS011;72000;42.828;23.382;2023-12-04T14:39:56;11.80;;;4.82;;